Time;durP1;ratioP1;P1;durP2;ratioP2;P2;SDS_P1;SDS_P2;PMS_P1;PMS_P2;Temp;Humidity;BMP_temperature;BMP_pressure;BME280_temperature;BME280_humidity;BME280_pressure;Samples;Min_cycle;Max_cycle;Signal;HPM_P1;HPM_P2
2023/03/03 00:02:12;;;;;;;21.60;8.85;;;;;;;8.60;57.33;98839.28;4471962;32;20143;-88
2023/03/03 00:04:37;;;;;;;20.80;8.98;;;;;;;8.64;57.12;98838.22;4472133;32;20107;-88
2023/03/03 00:07:02;;;;;;;23.62;9.90;;;;;;;8.66;56.86;98833.75;4472210;32;20088;-88
2023/03/03 00:09:28;;;;;;;20.65;8.82;;;;;;;8.40;57.84;98840.16;4457816;32;20100;-88
2023/03/03 00:11:55;;;;;;;19.75;8.25;;;;;;;8.22;58.50;98840.03;4472147;32;20352;-88
2023/03/03 00:14:24;;;;;;;21.75;8.02;;;;;;;8.39;57.88;98839.31;4458077;32;20123;-88
2023/03/03 00:16:50;;;;;;;21.98;8.10;;;;;;;8.20;58.41;98831.38;4457940;32;20089;-88
2023/03/03 00:19:19;;;;;;;18.48;8.25;;;;;;;8.38;58.38;98835.00;4472074;32;20126;-88
2023/03/03 00:21:45;;;;;;;20.50;8.50;;;;;;;8.61;57.48;98833.09;4472037;32;20092;-88
2023/03/03 00:24:43;;;;;;;21.02;8.45;;;;;;;8.58;57.66;98826.22;4457872;32;20116;-88
2023/03/03 00:27:38;;;;;;;22.23;9.02;;;;;;;8.61;57.54;98827.84;4408049;32;20090;-88
2023/03/03 00:30:17;;;;;;;20.08;8.35;;;;;;;8.74;57.00;98823.75;4397943;32;20523;-88
2023/03/03 00:32:54;;;;;;;19.83;8.98;;;;;;;8.73;57.16;98826.44;4407948;32;20133;-88
2023/03/03 00:35:25;;;;;;;20.55;8.35;;;;;;;8.76;56.87;98829.78;4407869;32;20114;-88
2023/03/03 00:37:55;;;;;;;21.10;8.65;;;;;;;8.81;56.59;98824.31;4407677;32;20114;-88
2023/03/03 00:40:34;;;;;;;20.60;8.57;;;;;;;8.82;56.37;98823.38;4407797;32;20639;-88
2023/03/03 00:43:01;;;;;;;19.25;7.82;;;;;;;8.79;56.28;98816.50;4395126;32;20133;-87
2023/03/03 00:45:28;;;;;;;19.50;8.23;;;;;;;8.81;56.17;98825.16;4395165;32;20686;-88
2023/03/03 00:47:54;;;;;;;20.90;8.97;;;;;;;8.84;56.09;98818.91;4407739;32;20451;-88
2023/03/03 00:50:30;;;;;;;17.92;7.72;;;;;;;8.55;56.68;98812.37;4406777;32;20277;-87
2023/03/03 00:53:01;;;;;;;19.37;7.80;;;;;;;8.60;56.81;98815.66;4407653;32;20122;-88
2023/03/03 00:55:27;;;;;;;18.70;7.65;;;;;;;8.69;56.34;98814.38;4407684;32;20122;-85
2023/03/03 00:57:52;;;;;;;18.92;7.07;;;;;;;8.72;56.52;98812.47;4407609;32;20093;-85
2023/03/03 01:00:18;;;;;;;17.60;6.85;;;;;;;8.72;56.50;98812.47;4407533;32;20119;-85
2023/03/03 01:02:45;;;;;;;19.37;7.22;;;;;;;8.78;56.29;98806.91;4438593;32;20373;-86
2023/03/03 01:05:15;;;;;;;17.58;7.40;;;;;;;8.76;56.34;98813.16;4471576;32;20127;-84
2023/03/03 01:07:40;;;;;;;17.87;7.32;;;;;;;8.79;56.67;98806.00;4471600;32;20132;-84
2023/03/03 01:10:07;;;;;;;18.10;6.90;;;;;;;8.82;56.74;98805.00;4471703;32;20096;-86
2023/03/03 01:12:32;;;;;;;19.85;7.10;;;;;;;8.76;57.24;98798.25;4471673;32;20105;-86
2023/03/03 01:14:58;;;;;;;19.10;7.70;;;;;;;8.82;57.08;98797.13;4444508;32;20127;-86
2023/03/03 01:17:23;;;;;;;17.95;7.28;;;;;;;8.70;57.70;98788.03;4471634;32;20084;-86
2023/03/03 01:19:49;;;;;;;17.00;6.97;;;;;;;8.77;57.46;98784.22;4471284;32;20080;-86
2023/03/03 01:22:14;;;;;;;17.10;7.40;;;;;;;8.82;57.29;98789.25;4471420;32;20100;-86
2023/03/03 01:24:40;;;;;;;18.80;6.82;;;;;;;8.74;57.46;98786.97;4471371;32;20100;-86
2023/03/03 01:27:05;;;;;;;17.20;7.15;;;;;;;8.63;58.17;98797.13;4471341;32;20092;-86
2023/03/03 01:29:31;;;;;;;18.48;7.28;;;;;;;8.72;57.68;98786.19;4471344;32;20080;-86
2023/03/03 01:31:56;;;;;;;18.80;7.28;;;;;;;8.66;57.74;98791.75;4471354;32;20149;-86
2023/03/03 01:34:21;;;;;;;19.75;7.57;;;;;;;8.72;57.74;98786.19;4471539;32;20089;-86
2023/03/03 01:36:47;;;;;;;20.05;7.65;;;;;;;8.70;58.05;98787.19;4471608;32;20104;-86
2023/03/03 01:39:12;;;;;;;18.92;8.02;;;;;;;8.59;58.37;98783.28;4471542;32;20169;-86
2023/03/03 01:41:38;;;;;;;19.58;7.65;;;;;;;8.72;57.86;98780.09;4471470;32;20131;-87
2023/03/03 01:44:04;;;;;;;19.15;8.02;;;;;;;8.68;57.86;98778.53;4471409;32;20123;-86
2023/03/03 01:47:06;;;;;;;16.48;7.32;;;;;;;8.67;57.77;98777.66;4471362;32;20383;-86
2023/03/03 01:49:40;;;;;;;20.27;7.40;;;;;;;8.52;58.46;98778.38;4394824;32;20301;-87
2023/03/03 01:52:26;;;;;;;16.27;6.68;;;;;;;8.63;57.92;98771.75;4407312;32;20118;-86
2023/03/03 01:54:56;;;;;;;16.70;7.35;;;;;;;8.66;57.63;98765.47;4407387;32;20115;-85
2023/03/03 01:57:43;;;;;;;19.20;7.45;;;;;;;8.24;59.08;98769.13;4407190;32;20125;-85
2023/03/03 02:00:10;;;;;;;19.75;7.82;;;;;;;8.35;58.78;98776.53;4407085;32;20116;-84
2023/03/03 02:02:36;;;;;;;17.27;7.43;;;;;;;8.34;58.78;98770.41;4394027;32;20114;-84
2023/03/03 02:05:01;;;;;;;17.20;7.12;;;;;;;8.22;59.25;98773.59;4407087;32;20488;-84
2023/03/03 02:07:28;;;;;;;18.80;7.93;;;;;;;8.31;59.23;98767.94;4407004;32;20177;-85
2023/03/03 02:10:17;;;;;;;16.17;6.50;;;;;;;8.52;58.51;98768.75;4394579;32;20085;-84
2023/03/03 02:12:45;;;;;;;18.20;7.35;;;;;;;8.61;58.30;98773.56;4407325;32;20129;-84
2023/03/03 02:15:21;;;;;;;19.35;7.95;;;;;;;8.62;58.23;98770.03;4394342;32;20256;-84
2023/03/03 02:17:48;;;;;;;19.75;7.87;;;;;;;8.64;58.26;98767.31;4406885;32;20086;-84
2023/03/03 02:20:39;;;;;;;19.02;7.90;;;;;;;8.69;58.00;98764.47;4406869;32;20173;-84
2023/03/03 02:23:12;;;;;;;20.10;7.75;;;;;;;8.72;57.94;98765.19;4427253;32;20109;-84
2023/03/03 02:26:04;;;;;;;17.70;7.55;;;;;;;8.67;58.06;98769.78;4456889;32;20172;-84
2023/03/03 02:28:32;;;;;;;18.90;7.03;;;;;;;8.77;57.83;98770.19;4463621;32;20092;-84
2023/03/03 02:30:59;;;;;;;18.80;7.80;;;;;;;8.71;57.99;98763.50;4470490;32;20080;-87
2023/03/03 02:33:25;;;;;;;21.15;7.35;;;;;;;8.75;57.72;98770.31;4456453;32;20169;-87
2023/03/03 02:35:51;;;;;;;16.75;7.53;;;;;;;8.81;57.52;98767.38;4456480;32;20100;-88
2023/03/03 02:38:50;;;;;;;19.73;7.18;;;;;;;8.73;57.74;98766.91;4456268;32;20137;-87
2023/03/03 02:41:26;;;;;;;17.50;7.32;;;;;;;8.81;57.55;98766.53;4470533;32;20099;-88
2023/03/03 02:43:58;;;;;;;18.80;7.18;;;;;;;8.79;57.54;98761.34;4456457;32;20104;-87
2023/03/03 02:46:24;;;;;;;18.48;7.78;;;;;;;8.83;57.47;98755.03;4470547;32;20565;-85
2023/03/03 02:48:49;;;;;;;18.52;7.72;;;;;;;8.85;57.27;98750.53;4470368;32;20093;-85
2023/03/03 02:51:14;;;;;;;18.92;8.20;;;;;;;8.89;57.13;98750.41;4470285;32;20089;-85
2023/03/03 02:53:40;;;;;;;19.48;8.68;;;;;;;8.89;57.08;98750.41;4470235;32;20424;-85
2023/03/03 02:56:08;;;;;;;18.75;7.70;;;;;;;8.69;57.88;98740.84;4470282;32;20486;-85
2023/03/03 02:58:33;;;;;;;;;;;;;;;8.87;57.35;98744.37;4470639;32;20120;-87
2023/03/03 03:00:59;;;;;;;19.05;7.60;;;;;;;8.88;57.54;98749.53;4456331;32;20315;-86
2023/03/03 03:03:24;;;;;;;19.98;8.13;;;;;;;8.94;57.37;98748.38;4470278;32;20084;-86
2023/03/03 03:05:49;;;;;;;20.48;8.00;;;;;;;8.85;57.91;98741.81;4470351;32;20088;-86
2023/03/03 03:08:15;;;;;;;18.35;7.40;;;;;;;8.93;57.76;98738.81;4470253;32;20457;-88
2023/03/03 03:10:40;;;;;;;21.00;9.25;;;;;;;9.01;57.67;98731.41;4470203;32;20103;-87
2023/03/03 03:13:05;;;;;;;19.75;8.70;;;;;;;9.01;57.66;98728.78;4470408;32;20077;-88
2023/03/03 03:15:31;;;;;;;21.40;9.15;;;;;;;8.98;57.92;98726.28;4458351;32;20348;-89
2023/03/03 03:17:56;;;;;;;18.60;8.38;;;;;;;8.61;58.89;98731.53;4472357;32;20116;-88
2023/03/03 03:20:22;;;;;;;21.25;8.68;;;;;;;8.93;58.13;98728.31;4458237;32;20104;-89
2023/03/03 03:22:47;;;;;;;21.05;9.00;;;;;;;9.12;57.63;98730.88;4472138;32;20141;-89
2023/03/03 03:25:13;;;;;;;19.15;8.20;;;;;;;9.21;57.42;98731.28;4472115;32;20126;-89
2023/03/03 03:27:38;;;;;;;21.17;8.45;;;;;;;9.31;57.03;98726.41;4473322;32;20084;-90
2023/03/03 03:30:04;;;;;;;19.50;7.87;;;;;;;9.21;57.09;98720.78;4473667;32;20138;-90
2023/03/03 03:32:29;;;;;;;19.48;8.10;;;;;;;8.94;57.91;98719.50;4472763;32;20096;-90
2023/03/03 03:34:55;;;;;;;20.02;8.63;;;;;;;8.73;58.54;98727.50;4459127;32;20388;-90
2023/03/03 03:37:20;;;;;;;21.50;9.38;;;;;;;9.05;57.79;98725.06;4472842;32;20131;-90
2023/03/03 03:39:46;;;;;;;17.90;8.30;;;;;;;9.08;57.68;98719.69;4472638;32;20073;-90
2023/03/03 03:42:11;;;;;;;21.58;9.18;;;;;;;9.25;57.19;98724.06;4472889;32;20088;-86
2023/03/03 03:44:36;;;;;;;19.95;9.13;;;;;;;9.33;56.96;98719.31;4472093;32;20108;-86
2023/03/03 03:47:02;;;;;;;20.55;8.77;;;;;;;9.34;56.89;98713.09;4471999;32;20092;-86
2023/03/03 03:49:27;;;;;;;22.85;9.50;;;;;;;9.41;56.66;98709.22;4471896;32;20089;-86
2023/03/03 03:51:53;;;;;;;19.87;9.18;;;;;;;9.41;56.60;98711.88;4471859;32;20084;-86
2023/03/03 03:54:18;;;;;;;21.92;9.27;;;;;;;9.43;56.54;98702.12;4472135;32;20092;-86
2023/03/03 03:56:44;;;;;;;21.58;8.75;;;;;;;9.47;56.49;98707.22;4472215;32;20142;-86
2023/03/03 03:59:09;;;;;;;21.67;9.27;;;;;;;9.49;56.38;98708.00;4472139;32;20088;-86
2023/03/03 04:01:34;;;;;;;19.98;8.75;;;;;;;9.48;56.40;98704.50;4472027;32;20089;-87
2023/03/03 04:04:00;;;;;;;20.02;8.75;;;;;;;9.49;56.36;98702.75;4472246;32;20099;-86
2023/03/03 04:06:25;;;;;;;21.48;8.90;;;;;;;9.54;56.17;98701.56;4472195;32;20081;-87
2023/03/03 04:08:51;;;;;;;20.12;8.75;;;;;;;9.55;56.17;98708.53;4472077;32;20077;-87
2023/03/03 04:11:16;;;;;;;20.95;8.50;;;;;;;9.51;56.23;98701.72;4471959;32;20130;-89
2023/03/03 04:13:42;;;;;;;21.55;9.40;;;;;;;9.47;56.39;98705.44;4472166;32;20080;-87
2023/03/03 04:16:07;;;;;;;22.45;9.30;;;;;;;9.57;56.16;98703.19;4472134;32;20108;-87
2023/03/03 04:18:33;;;;;;;25.48;9.65;;;;;;;9.58;56.06;98708.38;4471894;32;20118;-87
2023/03/03 04:20:58;;;;;;;24.45;9.85;;;;;;;9.54;56.11;98705.97;4471825;32;20145;-87
2023/03/03 04:23:23;;;;;;;22.02;9.27;;;;;;;9.38;56.40;98700.66;4471820;32;20080;-86
2023/03/03 04:25:49;;;;;;;21.50;9.00;;;;;;;9.59;55.77;98701.31;4471780;32;20084;-87
2023/03/03 04:28:15;;;;;;;24.25;9.57;;;;;;;9.42;56.07;98699.56;4457545;32;20119;-88
2023/03/03 04:30:41;;;;;;;21.37;9.18;;;;;;;9.53;55.80;98691.97;4457584;32;20172;-88
2023/03/03 04:33:06;;;;;;;20.98;9.27;;;;;;;9.46;55.87;98695.84;4471776;32;20093;-88
2023/03/03 04:35:32;;;;;;;21.23;9.70;;;;;;;9.67;55.49;98690.41;4471670;32;20424;-88
2023/03/03 04:37:57;;;;;;;22.37;10.25;;;;;;;9.69;55.40;98693.81;4457695;32;20088;-88
2023/03/03 04:40:23;;;;;;;23.35;9.15;;;;;;;9.72;55.35;98686.59;4471947;32;20121;-88
2023/03/03 04:42:48;;;;;;;23.75;9.50;;;;;;;9.68;55.40;98690.34;4471911;32;20111;-87
2023/03/03 04:45:14;;;;;;;20.35;8.90;;;;;;;9.74;55.19;98683.91;4471970;32;20084;-88
2023/03/03 04:47:39;;;;;;;19.73;8.65;;;;;;;9.64;55.32;98683.53;4457654;32;20107;-88
2023/03/03 04:50:06;;;;;;;22.65;9.18;;;;;;;9.72;55.22;98683.97;4471632;32;20489;-87
2023/03/03 04:52:31;;;;;;;23.00;8.90;;;;;;;9.74;55.11;98691.78;4471712;32;20110;-86
2023/03/03 04:54:57;;;;;;;20.65;8.98;;;;;;;9.72;54.99;98694.50;4471512;32;20117;-87
2023/03/03 04:57:22;;;;;;;20.05;8.48;;;;;;;9.73;54.92;98682.19;4471433;32;20076;-87
2023/03/03 04:59:48;;;;;;;20.48;8.15;;;;;;;9.34;55.38;98689.44;4471549;32;20148;-86
2023/03/03 05:02:13;;;;;;;19.73;8.65;;;;;;;9.46;55.28;98690.59;4457064;32;20093;-85
2023/03/03 05:04:39;;;;;;;21.30;8.85;;;;;;;9.51;54.97;98695.63;4471485;32;20120;-87
2023/03/03 05:07:04;;;;;;;18.05;7.85;;;;;;;9.69;54.62;98688.53;4471441;32;20334;-87
2023/03/03 05:09:30;;;;;;;20.60;8.35;;;;;;;9.77;54.47;98700.38;4471490;32;20142;-87
2023/03/03 05:11:55;;;;;;;19.23;8.35;;;;;;;9.70;54.31;98687.63;4471498;32;20129;-87
2023/03/03 05:14:21;;;;;;;19.98;7.55;;;;;;;9.78;54.07;98690.69;4464855;32;211194;-87
2023/03/03 05:16:46;;;;;;;17.40;7.32;;;;;;;9.89;53.81;98690.97;4471502;32;20077;-86
2023/03/03 05:19:12;;;;;;;18.85;7.32;;;;;;;9.66;53.80;98689.56;4471363;32;20113;-86
2023/03/03 05:21:41;;;;;;;16.77;7.87;;;;;;;9.56;53.99;98697.09;4471432;32;20096;-88
2023/03/03 05:24:07;;;;;;;19.62;7.57;;;;;;;9.69;53.68;98688.53;4471410;32;20148;-88
2023/03/03 05:26:33;;;;;;;18.20;7.25;;;;;;;9.79;53.26;98689.75;4471350;32;20440;-88
2023/03/03 05:28:58;;;;;;;17.35;7.25;;;;;;;9.88;53.06;98691.06;4471339;32;20103;-87
2023/03/03 05:31:26;;;;;;;18.48;8.45;;;;;;;9.91;53.07;98690.87;4457010;32;20128;-87
2023/03/03 05:33:51;;;;;;;17.37;6.82;;;;;;;9.87;53.46;98697.25;4457103;32;20156;-88
2023/03/03 05:36:17;;;;;;;18.45;7.82;;;;;;;9.93;53.53;98694.28;4470968;32;20093;-87
2023/03/03 05:38:42;;;;;;;18.92;7.75;;;;;;;10.00;53.44;98693.03;4471410;32;20092;-86
2023/03/03 05:41:08;;;;;;;18.30;7.43;;;;;;;9.97;53.60;98694.03;4457341;32;20101;-86
2023/03/03 05:43:33;;;;;;;19.23;8.02;;;;;;;9.99;53.77;98710.59;4471485;32;20100;-85
2023/03/03 05:45:59;;;;;;;18.58;7.43;;;;;;;9.99;53.89;98705.34;4471404;32;20103;-89
2023/03/03 05:48:25;;;;;;;19.87;8.52;;;;;;;10.04;53.90;98702.44;4471462;32;20101;-89
2023/03/03 05:50:51;;;;;;;18.58;7.30;;;;;;;10.11;53.70;98703.81;4471213;32;20385;-85
2023/03/03 05:53:16;;;;;;;17.00;6.60;;;;;;;10.13;53.74;98701.97;4471309;32;20085;-84
2023/03/03 05:55:42;;;;;;;17.92;7.80;;;;;;;10.17;53.81;98711.38;4471279;32;20345;-85
2023/03/03 05:58:07;;;;;;;18.75;8.02;;;;;;;10.23;53.83;98699.69;4470670;32;20101;-83
2023/03/03 06:00:33;;;;;;;17.40;7.55;;;;;;;10.19;53.66;98700.78;4471010;32;20072;-83
2023/03/03 06:02:58;;;;;;;19.52;8.57;;;;;;;10.24;53.69;98704.87;4470767;32;20118;-85
2023/03/03 06:05:24;;;;;;;18.27;8.13;;;;;;;10.29;53.58;98709.03;4471006;32;20073;-84
2023/03/03 06:07:49;;;;;;;19.60;8.32;;;;;;;10.32;53.40;98703.63;4470960;32;20120;-83
2023/03/03 06:10:15;;;;;;;17.17;7.47;;;;;;;10.38;53.10;98705.94;4470851;32;20115;-83
2023/03/03 06:12:41;;;;;;;19.08;8.18;;;;;;;10.38;52.71;98698.88;4470878;32;20436;-84
2023/03/03 06:15:07;;;;;;;19.62;8.23;;;;;;;10.39;52.61;98700.59;4470813;32;20081;-81
2023/03/03 06:17:32;;;;;;;18.80;7.75;;;;;;;10.41;52.54;98701.34;4443468;32;20123;-81
2023/03/03 06:19:58;;;;;;;18.70;8.00;;;;;;;10.38;52.60;98701.50;4456590;32;20092;-83
2023/03/03 06:22:23;;;;;;;18.75;7.93;;;;;;;10.49;52.46;98706.19;4456496;32;20182;-83
2023/03/03 06:24:48;;;;;;;18.08;7.30;;;;;;;10.46;52.72;98706.34;4456568;32;20081;-83
2023/03/03 06:27:14;;;;;;;15.25;6.47;;;;;;;10.50;53.02;98701.75;4470729;32;20085;-84
2023/03/03 06:29:39;;;;;;;19.85;7.62;;;;;;;10.56;53.07;98706.69;4470642;32;20107;-84
2023/03/03 06:32:05;;;;;;;18.10;7.30;;;;;;;10.57;53.19;98709.22;4470619;32;20085;-83
2023/03/03 06:34:30;;;;;;;17.20;7.25;;;;;;;10.71;52.95;98703.19;4470578;32;20068;-83
2023/03/03 06:36:56;;;;;;;18.10;7.60;;;;;;;10.81;52.83;98701.72;4470467;32;20123;-83
2023/03/03 06:39:21;;;;;;;17.02;7.65;;;;;;;10.88;52.60;98706.66;4470410;32;20444;-84
2023/03/03 06:41:47;;;;;;;16.77;7.75;;;;;;;10.96;52.04;98709.69;4464448;32;20127;-89
2023/03/03 06:44:12;;;;;;;18.25;7.68;;;;;;;11.04;51.28;98704.84;4468213;32;20156;-84
2023/03/03 06:46:37;;;;;;;16.95;7.28;;;;;;;11.09;50.74;98708.06;4468114;32;20105;-82
2023/03/03 06:49:03;;;;;;;19.23;7.65;;;;;;;11.17;50.63;98708.47;4470248;32;20120;-85
2023/03/03 06:51:34;;;;;;;19.83;8.10;;;;;;;11.25;50.84;98713.28;4470717;32;20104;-82
2023/03/03 06:54:02;;;;;;;20.30;9.68;;;;;;;11.35;50.95;98713.59;4471415;32;20092;-84
2023/03/03 06:56:27;;;;;;;21.35;10.23;;;;;;;11.34;50.58;98722.47;4456976;32;20109;-82
2023/03/03 06:58:57;;;;;;;19.05;9.20;;;;;;;11.36;50.19;98724.06;4463117;32;20081;-87
2023/03/03 07:01:23;;;;;;;20.58;8.98;;;;;;;11.39;50.03;98731.78;4463411;32;20064;-82
2023/03/03 07:03:48;;;;;;;20.40;9.57;;;;;;;11.40;49.76;98722.94;4450555;32;20077;-89
2023/03/03 07:06:32;;;;;;;21.33;8.75;;;;;;;11.49;49.63;98723.31;4464624;32;20451;-89
2023/03/03 07:08:58;;;;;;;22.87;9.90;;;;;;;11.50;49.92;98722.41;4463834;32;20152;-90
2023/03/03 07:11:23;;;;;;;21.75;10.30;;;;;;;11.58;49.64;98728.91;4469851;32;20383;-87
2023/03/03 07:13:50;;;;;;;21.83;10.30;;;;;;;10.90;50.67;98736.41;4457840;32;20145;-89
2023/03/03 07:16:18;;;;;;;23.87;10.48;;;;;;;11.24;49.79;98729.19;4458087;32;20120;-88
2023/03/03 07:18:55;;;;;;;22.65;11.00;;;;;;;11.21;49.56;98738.97;4451952;32;20253;-88
2023/03/03 07:21:46;;;;;;;23.40;11.18;;;;;;;11.25;49.01;98738.81;4462094;32;20131;-87
2023/03/03 07:24:18;;;;;;;25.05;12.30;;;;;;;11.10;49.43;98745.81;4461651;32;20081;-87
2023/03/03 07:26:43;;;;;;;28.52;12.07;;;;;;;10.97;49.70;98753.56;4462074;32;20174;-88
2023/03/03 07:29:21;;;;;;;24.50;12.20;;;;;;;11.02;49.67;98751.53;4463239;32;20411;-89
2023/03/03 07:31:47;;;;;;;28.58;12.93;;;;;;;10.99;49.91;98752.56;4462366;32;20835;-79
2023/03/03 07:34:24;;;;;;;31.05;14.95;;;;;;;11.08;50.05;98751.16;4467116;32;20084;-80
2023/03/03 07:36:53;;;;;;;32.97;16.35;;;;;;;11.18;50.08;98749.72;4456703;32;20166;-85
2023/03/03 07:39:25;;;;;;;31.20;15.52;;;;;;;11.18;50.23;98757.63;4469869;32;20097;-83
2023/03/03 07:41:51;;;;;;;32.30;17.87;;;;;;;11.01;50.37;98758.59;4471246;32;20088;-88
2023/03/03 07:44:20;;;;;;;35.00;17.80;;;;;;;11.12;49.85;98762.38;4456646;32;20166;-88
2023/03/03 07:46:47;;;;;;;35.92;17.85;;;;;;;11.08;49.66;98759.06;4457651;32;20085;-88
2023/03/03 07:49:35;;;;;;;37.63;17.15;;;;;;;11.25;49.47;98758.13;4471979;32;20101;-87
2023/03/03 07:52:02;;;;;;;33.22;17.45;;;;;;;11.40;49.15;98748.47;4457735;32;20084;-88
2023/03/03 07:54:41;;;;;;;33.72;16.77;;;;;;;11.48;49.21;98753.28;4457809;32;20456;-88
2023/03/03 07:57:25;;;;;;;36.63;18.35;;;;;;;11.46;49.22;98756.00;4457941;32;20100;-88
2023/03/03 08:00:01;;;;;;;34.72;18.10;;;;;;;11.33;49.19;98752.41;4471603;32;20092;-87
2023/03/03 08:02:40;;;;;;;33.60;18.52;;;;;;;10.88;49.70;98759.37;4471835;32;20604;-88
2023/03/03 08:05:38;;;;;;;34.45;17.87;;;;;;;11.30;48.82;98748.16;4471954;32;20080;-88
2023/03/03 08:08:09;;;;;;;37.42;17.70;;;;;;;11.42;48.62;98759.78;4408230;32;20740;-88
2023/03/03 08:10:35;;;;;;;35.28;17.00;;;;;;;11.51;48.50;98753.97;4407884;32;20105;-88
2023/03/03 08:13:08;;;;;;;35.03;17.23;;;;;;;11.59;48.61;98757.00;4395375;32;20481;-88
2023/03/03 08:15:36;;;;;;;32.17;16.70;;;;;;;11.68;48.70;98746.81;4382631;32;20129;-87
2023/03/03 08:18:02;;;;;;;36.70;17.02;;;;;;;11.71;48.53;98744.84;4407937;32;20536;-88
2023/03/03 08:20:49;;;;;;;37.67;19.37;;;;;;;11.70;48.32;98742.31;4395255;32;20101;-88
2023/03/03 08:23:16;;;;;;;39.50;18.10;;;;;;;11.74;48.47;98743.81;4407849;32;20082;-88
2023/03/03 08:25:42;;;;;;;35.63;17.87;;;;;;;11.80;48.19;98749.59;4407831;32;20121;-88
2023/03/03 08:28:08;;;;;;;33.42;18.27;;;;;;;11.64;48.85;98748.78;4407807;32;20374;-88
2023/03/03 08:30:34;;;;;;;36.03;17.80;;;;;;;11.88;48.51;98750.91;4395088;32;20242;-87
2023/03/03 08:33:00;;;;;;;40.33;17.40;;;;;;;12.00;48.41;98753.69;4395036;32;20156;-87
2023/03/03 08:35:25;;;;;;;34.78;17.75;;;;;;;11.63;48.86;98749.75;4395492;32;20090;-88
2023/03/03 08:37:51;;;;;;;34.00;18.27;;;;;;;11.99;48.01;98759.94;4407821;32;20164;-88
2023/03/03 08:40:16;;;;;;;37.05;18.92;;;;;;;11.68;48.23;98758.22;4408094;32;20127;-88
2023/03/03 08:42:42;;;;;;;32.13;16.52;;;;;;;12.07;47.75;98755.94;4402227;32;20157;-88
2023/03/03 08:45:07;;;;;;;40.25;18.02;;;;;;;12.16;47.76;98755.38;4471576;32;20132;-88
2023/03/03 08:47:33;;;;;;;35.67;18.05;;;;;;;11.92;48.36;98750.66;4457497;32;20390;-88
2023/03/03 08:49:58;;;;;;;33.80;18.67;;;;;;;12.26;47.65;98745.94;4471559;32;20119;-88
2023/03/03 08:52:24;;;;;;;37.15;18.30;;;;;;;12.26;47.43;98743.28;4457513;32;20076;-88
2023/03/03 08:54:49;;;;;;;32.70;17.90;;;;;;;12.24;47.69;98750.47;4471622;32;20414;-88
2023/03/03 08:57:15;;;;;;;38.85;19.40;;;;;;;12.19;47.59;98753.41;4457217;32;20097;-88
2023/03/03 08:59:40;;;;;;;37.42;17.25;;;;;;;12.37;47.21;98753.22;4471352;32;20112;-88
2023/03/03 09:02:06;;;;;;;32.92;16.62;;;;;;;12.55;46.98;98744.09;4471340;32;20076;-88
2023/03/03 09:04:31;;;;;;;38.80;17.67;;;;;;;12.67;46.65;98752.22;4471651;32;20437;-88
2023/03/03 09:06:57;;;;;;;34.42;17.60;;;;;;;12.62;46.69;98749.03;4457601;32;20101;-88
2023/03/03 09:09:22;;;;;;;31.87;16.15;;;;;;;12.28;47.66;98757.25;4471538;32;20089;-88
2023/03/03 09:11:48;;;;;;;30.50;14.45;;;;;;;12.62;47.03;98749.03;4456452;32;20096;-88
2023/03/03 09:14:19;;;;;;;29.90;14.90;;;;;;;12.72;46.82;98748.31;4457608;32;20317;-88
2023/03/03 09:16:50;;;;;;;28.95;14.00;;;;;;;12.69;46.99;98745.03;4471765;32;20088;-88
2023/03/03 09:19:24;;;;;;;30.05;15.55;;;;;;;12.63;47.20;98742.78;4471673;32;20107;-87
2023/03/03 09:21:53;;;;;;;30.45;16.05;;;;;;;12.49;47.69;98741.84;4471692;32;20092;-88
2023/03/03 09:24:30;;;;;;;26.77;12.95;;;;;;;12.55;47.22;98745.91;4471355;32;20573;-88
2023/03/03 09:26:59;;;;;;;28.80;12.55;;;;;;;12.70;46.89;98739.66;4471501;32;20144;-88
2023/03/03 09:29:36;;;;;;;26.50;12.85;;;;;;;12.47;47.35;98753.47;4471356;32;20436;-88
2023/03/03 09:32:23;;;;;;;20.17;8.85;;;;;;;12.52;47.35;98740.84;4457090;32;20437;-88
2023/03/03 09:34:49;;;;;;;21.05;7.40;;;;;;;12.02;48.74;98750.13;4457266;32;20080;-87
2023/03/03 09:37:23;;;;;;;22.27;8.55;;;;;;;11.24;50.65;98750.28;4457097;32;20505;-88
2023/03/03 09:39:54;;;;;;;18.20;8.18;;;;;;;11.17;51.54;98752.44;4457073;32;20109;-88
2023/03/03 09:42:44;;;;;;;20.50;7.28;;;;;;;12.03;49.41;98749.16;4471609;32;20114;-88
2023/03/03 09:45:19;;;;;;;17.87;7.35;;;;;;;11.96;49.18;98749.53;4471087;32;20371;-89
2023/03/03 09:47:51;;;;;;;19.83;7.50;;;;;;;12.32;48.28;98756.16;4471442;32;20093;-88
2023/03/03 09:50:45;;;;;;;19.85;8.00;;;;;;;11.90;49.33;98749.03;4471251;32;20428;-88
2023/03/03 09:54:11;;;;;;;18.40;7.50;;;;;;;12.26;48.33;98747.75;4422555;32;20319;-88
2023/03/03 09:56:45;;;;;;;18.75;6.60;;;;;;;12.16;48.55;98745.66;4377006;32;20113;-88
2023/03/03 09:59:26;;;;;;;20.05;7.00;;;;;;;12.05;49.38;98739.34;4376895;32;20134;-88
2023/03/03 10:01:51;;;;;;;17.58;6.90;;;;;;;12.23;49.14;98737.34;4376870;32;20173;-88
2023/03/03 10:04:38;;;;;;;18.25;7.03;;;;;;;12.20;48.64;98746.31;4376781;32;20115;-88
2023/03/03 10:07:18;;;;;;;18.48;6.57;;;;;;;12.32;48.28;98744.72;4376995;32;20148;-88
2023/03/03 10:10:00;;;;;;;19.95;7.62;;;;;;;11.89;49.23;98745.56;4376943;32;20107;-88
2023/03/03 10:12:30;;;;;;;15.93;5.68;;;;;;;11.56;50.39;98738.69;4376967;32;20106;-88
2023/03/03 10:15:05;;;;;;;17.50;6.68;;;;;;;11.78;49.25;98735.63;4376714;32;20106;-88
2023/03/03 10:17:45;;;;;;;18.23;6.45;;;;;;;11.80;48.83;98738.16;4376708;32;20116;-88
2023/03/03 10:20:29;;;;;;;18.35;6.95;;;;;;;12.23;48.02;98734.72;4376875;32;20106;-88
2023/03/03 10:22:56;;;;;;;16.73;6.47;;;;;;;12.26;48.12;98739.81;4379086;32;20098;-89
2023/03/03 10:25:27;;;;;;;15.73;7.00;;;;;;;11.97;48.81;98724.81;4381727;32;20094;-89
2023/03/03 10:28:01;;;;;;;19.80;7.57;;;;;;;12.35;48.41;98728.69;4420651;32;20213;-88
2023/03/03 10:30:45;;;;;;;18.60;7.60;;;;;;;12.36;47.96;98731.22;4453997;32;20096;-88
2023/03/03 10:33:43;;;;;;;17.65;7.75;;;;;;;12.42;47.68;98729.13;4461748;32;20112;-87
2023/03/03 10:36:24;;;;;;;18.25;6.93;;;;;;;12.02;48.54;98731.62;4469223;32;20156;-88
2023/03/03 10:39:24;;;;;;;18.40;6.57;;;;;;;12.37;47.75;98718.88;4461512;32;20138;-88
2023/03/03 10:42:12;;;;;;;20.60;8.57;;;;;;;12.85;46.49;98715.84;4461578;32;20096;-88
2023/03/03 10:45:11;;;;;;;20.15;8.40;;;;;;;12.52;46.83;98709.97;4475847;32;20077;-88
2023/03/03 10:47:42;;;;;;;18.90;8.00;;;;;;;12.77;46.73;98717.16;4475639;32;20470;-88
2023/03/03 10:50:34;;;;;;;18.52;8.00;;;;;;;13.20;45.53;98716.16;4475652;32;20153;-89
2023/03/03 10:53:13;;;;;;;18.35;7.93;;;;;;;13.32;45.19;98707.41;4461510;32;20109;-88
2023/03/03 10:55:50;;;;;;;18.62;7.95;;;;;;;13.22;44.88;98716.06;4475544;32;20738;-88
2023/03/03 10:58:39;;;;;;;22.73;7.95;;;;;;;13.44;44.51;98697.78;4475464;32;20156;-88
2023/03/03 11:01:21;;;;;;;;;;;;;;;12.95;46.18;98701.06;4476093;32;20077;-88
2023/03/03 11:04:02;;;;;;;18.77;7.53;;;;;;;13.34;44.91;98694.09;4475616;32;20255;-88
2023/03/03 11:06:42;;;;;;;17.85;8.10;;;;;;;13.75;43.70;98695.69;4461260;32;20134;-88
2023/03/03 11:09:36;;;;;;;18.00;7.78;;;;;;;13.50;43.58;98697.41;4475297;32;20403;-87
2023/03/03 11:12:17;;;;;;;16.35;6.32;;;;;;;13.29;44.56;98691.72;4461432;32;20141;-89
2023/03/03 11:14:51;;;;;;;18.17;7.53;;;;;;;13.91;42.94;98685.75;4475275;32;20112;-88
2023/03/03 11:17:20;;;;;;;18.12;7.18;;;;;;;13.77;43.48;98680.56;4461476;32;20127;-88
2023/03/03 11:19:55;;;;;;;17.87;7.07;;;;;;;13.88;42.79;98674.53;4475186;32;20155;-87
2023/03/03 11:22:33;;;;;;;18.75;8.15;;;;;;;14.38;42.01;98671.88;4475263;32;20081;-88
2023/03/03 11:25:20;;;;;;;15.60;6.80;;;;;;;14.60;41.78;98666.72;4474980;32;20120;-88
2023/03/03 11:28:08;;;;;;;16.77;6.95;;;;;;;14.35;42.03;98663.22;4461243;32;20287;-88
2023/03/03 11:30:56;;;;;;;17.77;7.25;;;;;;;14.67;41.71;98649.44;4461295;32;20451;-88
2023/03/03 11:33:27;;;;;;;18.52;7.55;;;;;;;14.89;41.64;98647.84;4425863;32;20089;-89
2023/03/03 11:36:20;;;;;;;15.88;6.40;;;;;;;14.58;41.34;98641.31;4410467;32;20140;-89
2023/03/03 11:39:01;;;;;;;15.02;6.60;;;;;;;14.34;41.13;98647.41;4423474;32;20441;-88
2023/03/03 11:41:30;;;;;;;14.18;5.65;;;;;;;14.24;41.89;98641.09;4423495;32;20113;-88
2023/03/03 11:44:04;;;;;;;18.70;7.15;;;;;;;14.51;41.18;98647.03;4410505;32;20098;-88
2023/03/03 11:46:47;;;;;;;21.25;6.72;;;;;;;14.57;41.53;98632.50;4410818;32;20139;-87